Terminal Aerodrome Forecast
Issued by NWS

Home | Current Version | Previous Version | Text Only | Print | Product List | Glossary On
Versions: 1 2 3 4 5 6 7 8 9 10 11 12 13 14 15 16 17
794
FTUS43 KICT 221733
TAFRSL
TAF
KRSL 221733Z 2218/2318 35017G22KT P6SM BKN070
     FM222200 02013KT P6SM BKN060
     FM230000 05005KT P6SM OVC060=

USA.gov is the U.S. government's official web portal to all federal, state and local government web resources and services.